Time;durP1;ratioP1;P1;durP2;ratioP2;P2;SDS_P1;SDS_P2;PMS_P1;PMS_P2;Temp;Humidity;BMP_temperature;BMP_pressure;BME280_temperature;BME280_humidity;BME280_pressure;Samples;Min_cycle;Max_cycle;Signal;HPM_P1;HPM_P2
2022/06/25 00:01:47;;;;;;;6.42;4.25;;;;;;;17.01;63.23;99428.23;1779952;79;21568;-59
2022/06/25 00:07:00;;;;;;;4.87;4.30;;;;;;;17.00;63.31;99434.48;1780852;79;21095;-60
2022/06/25 00:09:27;;;;;;;7.85;3.90;;;;;;;16.97;63.42;99433.38;1781338;79;21501;-61
2022/06/25 00:14:38;;;;;;;8.40;4.15;;;;;;;16.89;63.62;99438.44;1782808;79;21012;-60
2022/06/25 00:17:05;;;;;;;5.47;3.90;;;;;;;16.75;63.97;99432.88;1771703;79;21005;-60
2022/06/25 00:19:32;;;;;;;11.65;4.05;;;;;;;16.69;64.06;99434.20;1782002;79;21113;-60
2022/06/25 00:21:59;;;;;;;5.12;4.05;;;;;;;16.63;64.21;99430.69;1779529;79;21713;-60
2022/06/25 00:24:26;;;;;;;5.20;3.90;;;;;;;16.59;64.39;99429.74;1782160;79;21192;-60
2022/06/25 00:26:52;;;;;;;7.67;3.93;;;;;;;16.55;64.53;99429.12;1781288;79;21191;-60
2022/06/25 00:29:21;;;;;;;9.05;3.72;;;;;;;16.54;64.63;99435.36;1757861;79;22202;-60
2022/06/25 00:31:49;;;;;;;4.72;3.58;;;;;;;16.54;64.81;99430.09;1781588;78;21076;-60
2022/06/25 00:34:16;;;;;;;4.80;3.33;;;;;;;16.54;64.91;99434.88;1769614;79;21050;-60
2022/06/25 00:36:42;;;;;;;5.20;3.90;;;;;;;16.55;64.96;99438.34;1748410;81;21055;-60
2022/06/25 00:39:09;;;;;;;3.90;3.50;;;;;;;16.61;64.98;99430.44;1766486;79;21034;-60
2022/06/25 00:41:36;;;;;;;6.58;3.72;;;;;;;16.65;64.89;99431.90;1776683;79;21088;-60
2022/06/25 00:44:10;;;;;;;3.83;3.10;;;;;;;16.61;65.04;99428.67;1780034;79;21013;-61
2022/06/25 00:46:37;;;;;;;3.98;3.58;;;;;;;16.71;64.99;99430.94;1774348;79;21020;-60
2022/06/25 00:49:04;;;;;;;5.80;3.72;;;;;;;16.73;65.05;99430.34;1760435;79;20984;-60
2022/06/25 00:51:33;;;;;;;4.00;3.62;;;;;;;16.71;65.15;99438.02;1748484;79;21700;-61
2022/06/25 00:54:04;;;;;;;5.65;3.47;;;;;;;16.74;65.16;99437.29;1771490;79;21119;-59
2022/06/25 00:56:36;;;;;;;5.70;3.85;;;;;;;16.71;65.32;99441.48;1756281;80;21582;-61
2022/06/25 00:59:05;;;;;;;5.50;3.50;;;;;;;16.68;65.39;99435.13;1774082;79;21050;-61
2022/06/25 01:01:36;;;;;;;4.42;3.87;;;;;;;16.59;65.63;99437.65;1777814;79;21500;-61
2022/06/25 01:04:03;;;;;;;5.33;3.67;;;;;;;16.57;65.65;99437.75;1781460;79;21099;-61
2022/06/25 01:06:30;;;;;;;;;;;;;;;16.51;65.71;99441.70;1780503;79;21337;-61
2022/06/25 01:08:58;;;;;;;5.22;4.05;;;;;;;16.42;66.18;99447.67;1775970;79;20216;-61
2022/06/25 01:11:26;;;;;;;4.70;3.67;;;;;;;16.37;66.08;99445.03;1785921;79;21056;-61
2022/06/25 01:13:53;;;;;;;4.62;3.92;;;;;;;16.32;66.15;99445.36;1779716;79;21492;-60
2022/06/25 01:16:21;;;;;;;5.62;3.75;;;;;;;16.29;66.25;99447.75;1777561;79;21056;-60
2022/06/25 01:18:49;;;;;;;6.85;3.70;;;;;;;16.25;66.44;99443.68;1773032;79;22465;-61
2022/06/25 01:21:15;;;;;;;5.70;3.72;;;;;;;16.25;66.39;99446.31;1774797;79;21084;-61
2022/06/25 01:23:42;;;;;;;9.80;3.83;;;;;;;16.23;66.52;99442.12;1743146;81;21056;-60
2022/06/25 01:26:09;;;;;;;7.70;3.98;;;;;;;16.21;66.56;99447.48;1780446;79;20969;-61
2022/06/25 01:28:36;;;;;;;6.37;3.75;;;;;;;16.17;66.81;99443.41;1775746;79;20954;-61
2022/06/25 01:31:03;;;;;;;6.42;4.17;;;;;;;16.14;66.67;99443.65;1778436;79;21162;-61
2022/06/25 01:33:30;;;;;;;6.20;3.75;;;;;;;16.09;66.85;99443.14;1781702;79;21660;-60
2022/06/25 01:35:56;;;;;;;5.58;4.37;;;;;;;16.08;67.08;99446.74;1782112;79;21006;-61
2022/06/25 01:38:23;;;;;;;6.33;3.50;;;;;;;16.07;67.01;99447.67;1780259;79;20951;-61
2022/06/25 01:40:50;;;;;;;6.50;4.17;;;;;;;16.05;67.17;99449.61;1778441;79;21161;-61
2022/06/25 01:43:16;;;;;;;4.08;3.22;;;;;;;16.04;67.33;99453.17;1783221;79;21988;-60
2022/06/25 01:45:43;;;;;;;4.45;3.75;;;;;;;16.05;67.50;99453.56;1775043;79;21026;-61
2022/06/25 01:48:10;;;;;;;5.53;4.05;;;;;;;16.01;67.41;99452.09;1782218;79;21036;-60
2022/06/25 01:50:37;;;;;;;6.53;4.20;;;;;;;15.96;67.59;99456.85;1754689;81;21577;-60
2022/06/25 01:53:05;;;;;;;5.55;3.65;;;;;;;15.89;67.67;99449.41;1766756;80;21823;-61
2022/06/25 01:55:32;;;;;;;5.15;4.03;;;;;;;15.88;67.92;99456.12;1751891;79;21086;-61
2022/06/25 01:57:59;;;;;;;4.40;3.52;;;;;;;15.84;67.88;99456.80;1762797;79;21624;-60
2022/06/25 02:00:29;;;;;;;4.12;3.52;;;;;;;15.82;68.02;99454.78;1759666;79;20930;-61
2022/06/25 02:02:56;;;;;;;4.30;3.90;;;;;;;15.79;68.15;99453.66;1755658;79;20973;-61
2022/06/25 02:08:14;;;;;;;5.17;3.83;;;;;;;15.77;68.54;99458.22;1753659;79;21898;-61
2022/06/25 02:10:42;;;;;;;4.33;3.87;;;;;;;15.77;68.63;99451.64;1775423;79;21024;-61
2022/06/25 02:13:09;;;;;;;5.25;3.77;;;;;;;15.77;68.58;99456.90;1776652;79;21029;-61
2022/06/25 02:15:36;;;;;;;3.85;3.50;;;;;;;15.75;68.74;99464.06;1772048;79;21062;-61
2022/06/25 02:18:03;;;;;;;4.72;4.10;;;;;;;15.74;68.78;99462.39;1776617;79;20966;-61
2022/06/25 02:20:30;;;;;;;4.45;3.37;;;;;;;15.73;68.87;99465.95;1753268;81;21453;-61
2022/06/25 02:22:58;;;;;;;7.35;3.98;;;;;;;15.70;68.94;99466.18;1763294;79;21006;-61
2022/06/25 02:25:25;;;;;;;5.50;4.05;;;;;;;15.67;69.13;99473.79;1745474;81;21037;-61
2022/06/25 02:27:52;;;;;;;;;;;;;;;15.64;69.27;99463.97;1778145;79;21062;-61
2022/06/25 02:30:18;;;;;;;;;;;;;;;15.64;69.61;99463.97;1778354;79;20128;-60
2022/06/25 02:32:45;;;;;;;;;;;;;;;15.63;69.61;99464.93;1784012;79;21915;-61
2022/06/25 02:35:11;;;;;;;;;;;;;;;15.64;69.85;99463.97;1777161;79;20165;-60
2022/06/25 02:37:38;;;;;;;;;;;;;;;15.67;69.97;99466.38;1784729;79;20188;-61
2022/06/25 02:40:05;;;;;;;;;;;;;;;15.67;69.83;99457.16;1782283;79;20166;-60
2022/06/25 02:42:39;;;;;;;;;;;;;;;15.72;69.92;99462.97;1781674;79;20158;-61
2022/06/25 02:45:07;;;;;;;;;;;;;;;15.94;70.25;99453.52;1784697;79;21440;-61
2022/06/25 02:47:34;;;;;;;;;;;;;;;16.45;70.23;99462.42;1785795;79;20170;-60
2022/06/25 02:50:01;;;;;;;;;;;;;;;16.95;69.99;99457.73;1773894;80;20143;-61
2022/06/25 02:52:27;;;;;;;;;;;;;;;17.53;69.76;99457.54;1776871;79;20655;-61
2022/06/25 02:54:54;;;;;;;;;;;;;;;18.05;69.27;99452.02;1776495;79;20180;-60
2022/06/25 03:00:06;;;;;;;;;;;;;;;19.06;68.56;99450.58;1784375;79;20182;-60
2022/06/25 03:02:33;;;;;;;;;;;;;;;19.56;68.12;99454.56;1784803;79;20103;-61
2022/06/25 03:05:00;;;;;;;;;;;;;;;19.96;67.60;99451.84;1784024;79;20980;-61
2022/06/25 03:07:26;;;;;;;;;;;;;;;20.32;67.06;99446.31;1778574;79;20152;-61
2022/06/25 03:09:53;;;;;;;;;;;;;;;20.66;66.65;99445.85;1763676;79;21445;-61
2022/06/25 03:12:19;;;;;;;;;;;;;;;20.92;66.16;99455.83;1768897;79;21130;-61
2022/06/25 03:14:46;;;;;;;;;;;;;;;21.22;65.62;99452.08;1769081;79;20086;-61
2022/06/25 03:17:12;;;;;;;;;;;;;;;21.56;65.04;99452.33;1766935;79;20072;-61
2022/06/25 03:19:38;;;;;;;;;;;;;;;21.85;64.55;99449.98;1761197;80;20805;-61
2022/06/25 03:22:05;;;;;;;;;;;;;;;22.17;64.17;99445.94;1756009;80;21636;-61
2022/06/25 03:24:31;;;;;;;;;;;;;;;22.36;63.42;99448.45;1754682;80;20141;-61
2022/06/25 03:26:57;;;;;;;;;;;;;;;22.72;62.99;99443.05;1764735;80;20112;-62
2022/06/25 03:29:24;;;;;;;;;;;;;;;22.95;62.48;99444.20;1760384;80;20850;-61
2022/06/25 03:31:50;;;;;;;;;;;;;;;23.08;61.98;99444.25;1758025;80;20150;-61
2022/06/25 03:34:16;;;;;;;;;;;;;;;23.44;61.29;99433.75;1763971;80;21540;-61
2022/06/25 03:36:43;;;;;;;;;;;;;;;23.73;60.95;99445.84;1757963;80;20180;-61
2022/06/25 03:39:09;;;;;;;;;;;;;;;23.96;60.18;99438.53;1761065;79;20564;-61
2022/06/25 03:41:36;;;;;;;;;;;;;;;24.07;59.32;99437.70;1756558;80;20218;-62
2022/06/25 03:44:04;;;;;;;;;;;;;;;24.23;58.69;99447.55;1756446;80;20185;-61
2022/06/25 03:46:32;;;;;;;;;;;;;;;24.42;57.44;99448.19;1753216;80;20861;-62
2022/06/25 03:48:59;;;;;;;;;;;;;;;24.51;57.50;99449.91;1756641;80;20106;-62
2022/06/25 03:51:26;;;;;;;;;;;;;;;24.79;57.54;99450.35;1757805;80;20177;-62
2022/06/25 03:53:53;;;;;;;;;;;;;;;25.10;56.20;99446.41;1752014;80;20157;-62
2022/06/25 03:56:19;;;;;;;;;;;;;;;25.27;56.42;99457.07;1761645;80;20185;-63
2022/06/25 03:58:46;;;;;;;;;;;;;;;25.52;55.76;99451.93;1762667;80;21105;-63
2022/06/25 04:01:13;;;;;;;;;;;;;;;25.70;55.39;99448.97;1762479;80;20617;-63
2022/06/25 04:03:40;;;;;;;;;;;;;;;25.84;54.98;99447.41;1756097;80;20145;-62
2022/06/25 04:06:07;;;;;;;;;;;;;;;26.03;53.99;99450.95;1763045;80;20152;-63
2022/06/25 04:08:33;;;;;;;;;;;;;;;26.04;53.42;99453.95;1765080;80;20077;-62
2022/06/25 04:11:00;;;;;;;;;;;;;;;26.15;52.87;99459.89;1760489;79;21211;-62
2022/06/25 04:13:26;;;;;;;;;;;;;;;26.32;53.19;99453.39;1763064;80;20187;-63
2022/06/25 04:15:53;;;;;;;;;;;;;;;26.40;52.16;99457.34;1758704;80;20515;-62
2022/06/25 04:18:20;;;;;;;;;;;;;;;26.33;51.08;99460.42;1772742;79;20164;-62
2022/06/25 04:20:46;;;;;;;;;;;;;;;26.48;50.82;99466.63;1770063;79;20190;-62
2022/06/25 04:23:13;;;;;;;;;;;;;;;26.58;50.89;99465.56;1774595;80;21939;-62
2022/06/25 04:25:39;;;;;;;;;;;;;;;26.81;50.62;99471.71;1767642;80;20160;-63
2022/06/25 04:30:50;;;;;;;;;;;;;;;26.89;49.14;99474.30;1771825;80;20857;-62
2022/06/25 04:33:17;;;;;;;;;;;;;;;27.08;49.38;99468.05;1775131;78;20198;-62
2022/06/25 04:35:44;;;;;;;;;;;;;;;27.23;48.46;99473.77;1775213;80;21093;-62
2022/06/25 04:38:10;;;;;;;;;;;;;;;27.37;48.39;99473.44;1773652;79;20616;-63
2022/06/25 04:40:37;;;;;;;;;;;;;;;27.43;47.87;99475.36;1774080;80;20449;-63
2022/06/25 04:43:03;;;;;;;;;;;;;;;27.54;47.61;99474.56;1770367;79;21721;-63
2022/06/25 04:45:30;;;;;;;;;;;;;;;27.72;47.10;99477.64;1774817;80;20988;-63
2022/06/25 04:48:00;;;;;;;;;;;;;;;27.90;47.05;99473.24;1774350;80;21559;-63
2022/06/25 04:50:27;;;;;;;;;;;;;;;28.02;46.31;99484.30;1770020;80;20186;-63
2022/06/25 04:52:54;;;;;;;;;;;;;;;27.95;46.15;99479.36;1768800;80;20181;-63
2022/06/25 04:55:20;;;;;;;;;;;;;;;28.00;46.05;99483.13;1771875;80;20525;-64
2022/06/25 04:57:47;;;;;;;;;;;;;;;28.12;45.47;99483.48;1768323;80;20198;-61
2022/06/25 05:00:14;;;;;;;;;;;;;;;28.26;45.39;99490.63;1769135;80;22196;-62
2022/06/25 05:02:40;;;;;;;;;;;;;;;28.45;44.77;99486.46;1773464;80;20138;-62
2022/06/25 05:05:08;;;;;;;;;;;;;;;28.62;45.09;99492.38;1776295;80;20454;-62
2022/06/25 05:07:34;;;;;;;;;;;;;;;28.85;44.55;99494.84;1768667;80;20518;-63
2022/06/25 05:10:01;;;;;;;;;;;;;;;29.06;43.62;99489.92;1772681;80;20153;-63
2022/06/25 05:15:12;;;;;;;;;;;;;;;29.23;43.63;99496.63;1766413;80;20089;-62
2022/06/25 05:17:39;;;;;;;;;;;;;;;29.42;43.50;99492.91;1774529;80;20249;-62
2022/06/25 05:20:07;;;;;;;;;;;;;;;29.64;43.22;99505.23;1724521;81;20520;-63
2022/06/25 05:22:33;;;;;;;;;;;;;;;29.82;42.37;99503.83;1773959;80;20141;-62
2022/06/25 05:24:59;;;;;;;;;;;;;;;29.84;42.27;99505.29;1773808;80;20992;-63
2022/06/25 05:27:27;;;;;;;;;;;;;;;29.92;41.59;99505.63;1759071;81;20153;-62
2022/06/25 05:29:54;;;;;;;;;;;;;;;30.06;41.73;99505.97;1771262;80;20148;-62
2022/06/25 05:32:20;;;;;;;;;;;;;;;29.89;40.08;99504.70;1769553;79;20199;-63
2022/06/25 05:34:48;;;;;;;;;;;;;;;29.54;40.01;99501.22;1763928;81;20571;-63
2022/06/25 05:37:15;;;;;;;;;;;;;;;29.51;39.60;99499.76;1770075;81;21206;-62
2022/06/25 05:39:42;;;;;;;;;;;;;;;29.43;39.93;99506.66;1761741;79;20169;-63
2022/06/25 05:42:09;;;;;;;;;;;;;;;29.71;40.21;99507.11;1790358;79;20148;-63
2022/06/25 05:44:35;;;;;;;;;;;;;;;29.70;38.83;99502.77;1783944;79;20154;-64
2022/06/25 05:47:02;;;;;;;;;;;;;;;29.82;39.62;99509.22;1753641;81;20234;-62
2022/06/25 05:49:28;;;;;;;;;;;;;;;29.82;38.81;99501.14;1751973;81;22567;-62
2022/06/25 05:51:56;;;;;;;;;;;;;;;29.63;38.90;99506.77;1764795;79;20185;-62
2022/06/25 05:54:23;;;;;;;;;;;;;;;29.65;38.55;99501.50;1769694;80;20084;-62
2022/06/25 05:56:49;;;;;;;;;;;;;;;29.44;38.60;99506.98;1775567;79;20143;-63
2022/06/25 05:59:16;;;;;;;;;;;;;;;29.48;38.08;99502.86;1763670;80;20140;-62
2022/06/25 06:01:42;;;;;;;;;;;;;;;29.45;38.60;99508.64;1765508;80;21146;-62
2022/06/25 06:04:09;;;;;;;;;;;;;;;29.74;38.81;99512.08;1765447;79;20499;-63
2022/06/25 06:06:35;;;;;;;;;;;;;;;29.83;38.18;99508.20;1767227;79;20176;-63
2022/06/25 06:09:02;;;;;;;;;;;;;;;30.00;38.18;99517.55;1763195;81;20493;-62
2022/06/25 06:11:28;;;;;;;;;;;;;;;30.16;38.14;99522.23;1776310;79;20096;-62
2022/06/25 06:13:54;;;;;;;;;;;;;;;30.15;37.40;99524.62;1777501;79;20923;-62
2022/06/25 06:16:21;;;;;;;;;;;;;;;29.98;37.82;99520.13;1777320;79;20674;-63
2022/06/25 06:18:48;;;;;;;;;;;;;;;30.19;38.04;99512.39;1763790;79;20107;-63
2022/06/25 06:21:14;;;;;;;;;;;;;;;30.45;38.05;99528.63;1743623;81;20504;-63
2022/06/25 06:23:40;;;;;;;;;;;;;;;30.65;37.85;99527.80;1744006;81;20621;-63
2022/06/25 06:26:07;;;;;;;;;;;;;;;30.48;36.98;99522.83;1778776;79;21365;-63
2022/06/25 06:28:33;;;;;;;;;;;;;;;30.16;37.15;99533.00;1772220;79;20447;-62
2022/06/25 06:30:59;;;;;;;;;;;;;;;29.99;37.30;99529.34;1739427;81;20140;-65
2022/06/25 06:33:26;;;;;;;;;;;;;;;30.29;37.74;99529.02;1745852;81;20239;-63
2022/06/25 06:35:52;;;;;;;;;;;;;;;30.63;37.10;99535.26;1773506;79;20241;-63
2022/06/25 06:38:18;;;;;;;;;;;;;;;30.63;37.52;99529.88;1763678;80;21442;-63
2022/06/25 06:40:45;;;;;;;;;;;;;;;31.08;37.65;99527.36;1769195;80;20270;-64
2022/06/25 06:43:11;;;;;;;;;;;;;;;31.17;37.08;99528.78;1768321;80;20104;-64
2022/06/25 06:45:37;;;;;;;;;;;;;;;31.21;36.95;99528.16;1765166;80;20163;-64
2022/06/25 06:48:06;;;;;;;;;;;;;;;31.23;36.64;99533.36;1768339;80;20174;-63
2022/06/25 06:50:33;;;;;;;;;;;;;;;31.26;36.98;99532.94;1765464;80;21092;-64
2022/06/25 06:52:59;;;;;;;;;;;;;;;31.37;36.87;99529.61;1761536;80;20145;-64
2022/06/25 06:55:26;;;;;;;;;;;;;;;31.49;37.00;99533.00;1765585;80;20175;-63
2022/06/25 06:57:52;;;;;;;;;;;;;;;31.80;36.81;99527.66;1761254;80;20161;-63
2022/06/25 07:00:18;;;;;;;;;;;;;;;31.97;36.82;99531.24;1762670;80;20219;-63
2022/06/25 07:02:45;;;;;;;;;;;;;;;32.14;36.38;99526.98;1757005;80;21110;-61
2022/06/25 07:05:11;;;;;;;;;;;;;;;32.04;36.45;99534.71;1762699;80;20177;-62
2022/06/25 07:07:38;;;;;;;;;;;;;;;31.97;35.55;99528.54;1758826;80;20074;-61
2022/06/25 07:10:07;;;;;;;;;;;;;;;31.59;36.02;99538.75;1755225;79;20088;-61
2022/06/25 07:12:33;;;;;;;;;;;;;;;31.47;35.75;99536.42;1756608;80;20142;-61
2022/06/25 07:14:59;;;;;;;;;;;;;;;31.31;35.80;99539.84;1754489;80;21121;-62
2022/06/25 07:17:26;;;;;;;;;;;;;;;31.39;35.87;99534.25;1755273;80;20487;-61
2022/06/25 07:19:52;;;;;;;;;;;;;;;31.25;35.54;99533.95;1756241;80;20511;-61
2022/06/25 07:22:19;;;;;;;;;;;;;;;31.15;35.21;99530.89;1763699;80;20224;-62
2022/06/25 07:24:45;;;;;;;;;;;;;;;30.90;35.59;99536.94;1760180;80;20270;-61
2022/06/25 07:27:12;;;;;;;;;;;;;;;30.67;35.41;99536.48;1765315;80;21521;-61
2022/06/25 07:29:38;;;;;;;;;;;;;;;30.65;35.76;99534.55;1757159;80;20121;-61
2022/06/25 07:32:05;;;;;;;;;;;;;;;30.64;35.55;99534.21;1759632;80;20874;-61
2022/06/25 07:34:32;;;;;;;;;;;;;;;30.39;35.31;99526.77;1758128;80;20154;-60
2022/06/25 07:36:59;;;;;;;;;;;;;;;29.64;35.61;99534.83;1754776;80;21441;-61
2022/06/25 07:39:25;;;;;;;;;;;;;;;29.16;35.70;99538.80;1756681;80;21232;-60
2022/06/25 07:41:53;;;;;;;;;;;;;;;28.72;35.93;99536.38;1755325;80;20481;-60
2022/06/25 07:44:19;;;;;;;;;;;;;;;28.18;36.43;99533.70;1758408;80;20162;-60
2022/06/25 07:46:46;;;;;;;;;;;;;;;28.02;36.75;99533.42;1754515;80;20991;-61
2022/06/25 07:49:12;;;;;;;;;;;;;;;27.79;36.93;99534.93;1758389;80;20162;-60
2022/06/25 07:51:57;;;;;;;;;;;;;;;27.89;37.60;99543.48;1756762;80;21057;-61
2022/06/25 07:54:25;;;;;;;;;;;;;;;27.92;37.32;99536.09;1767161;80;20115;-60
2022/06/25 07:56:53;;;;;;;;;;;;;;;27.74;37.91;99550.72;1756061;80;20231;-60
2022/06/25 07:59:20;;;;;;;;;;;;;;;27.91;38.11;99546.52;1757621;80;21120;-60
2022/06/25 08:01:47;;;;;;;;;;;;;;;28.09;38.09;99553.61;1764317;80;20137;-60
2022/06/25 08:04:13;;;;;;;;;;;;;;;28.26;38.23;99548.34;1765539;80;21681;-61
2022/06/25 08:06:41;;;;;;;;;;;;;;;28.19;37.91;99551.46;1772158;80;20165;-60
2022/06/25 08:09:08;;;;;;;;;;;;;;;27.91;37.96;99553.22;1763372;79;20161;-60
2022/06/25 08:11:35;;;;;;;;;;;;;;;27.73;37.98;99554.91;1785423;79;21139;-60
2022/06/25 08:14:02;;;;;;;;;;;;;;;27.60;38.24;99556.94;1774949;79;20180;-60
2022/06/25 08:16:28;;;;;;;;;;;;;;;27.52;38.00;99561.06;1780856;78;22435;-62
2022/06/25 08:18:55;;;;;;;;;;;;;;;27.49;38.31;99557.41;1771925;79;20716;-61
2022/06/25 08:21:23;;;;;;;;;;;;;;;27.68;38.77;99559.52;1744769;79;20180;-61
2022/06/25 08:23:50;;;;;;;;;;;;;;;27.92;38.00;99549.50;1759586;79;20208;-60
2022/06/25 08:26:16;;;;;;;;;;;;;;;27.73;38.07;99554.43;1762765;79;20309;-60
2022/06/25 08:28:44;;;;;;;;;;;;;;;27.58;37.78;99549.06;1760528;79;20523;-60
2022/06/25 08:31:11;;;;;;;;;;;;;;;27.63;37.74;99553.88;1766190;79;20140;-61
2022/06/25 08:33:38;;;;;;;;;;;;;;;27.72;38.06;99562.66;1766658;79;20128;-60
2022/06/25 08:36:05;;;;;;;;;;;;;;;27.78;38.16;99568.60;1769560;79;20213;-61
2022/06/25 08:38:32;;;;;;;;;;;;;;;27.95;38.24;99566.56;1761464;79;20171;-61
2022/06/25 08:41:00;;;;;;;;;;;;;;;28.02;37.87;99566.14;1771120;78;21582;-61
2022/06/25 08:43:27;;;;;;;;;;;;;;;27.93;38.06;99569.97;1785927;78;20150;-62
2022/06/25 08:45:57;;;;;;;;;;;;;;;28.10;38.18;99572.74;1740500;80;20209;-61
2022/06/25 08:48:25;;;;;;;;;;;;;;;28.23;38.21;99570.20;1773028;78;20092;-61
2022/06/25 08:50:52;;;;;;;;;;;;;;;28.31;38.06;99571.40;1753993;79;20119;-61
2022/06/25 08:53:19;;;;;;;;;;;;;;;28.40;38.29;99568.59;1779270;78;21067;-61
2022/06/25 08:55:46;;;;;;;;;;;;;;;28.49;38.06;99565.63;1772481;78;20212;-61
2022/06/25 08:58:13;;;;;;;;;;;;;;;28.56;38.26;99568.37;1777795;79;20263;-62
2022/06/25 09:00:42;;;;;;;;;;;;;;;28.68;38.07;99569.53;1771445;78;20128;-62
2022/06/25 09:03:09;;;;;;;;;;;;;;;28.72;38.07;99564.07;1774383;78;20144;-61
2022/06/25 09:05:41;;;;;;;;;;;;;;;28.68;37.68;99566.84;1769615;78;21914;-62
2022/06/25 09:08:12;;;;;;;;;;;;;;;28.55;37.67;99564.03;1768152;78;20146;-61
2022/06/25 09:10:58;;;;;;;;;;;;;;;28.51;37.75;99563.59;1754840;80;20085;-60
2022/06/25 09:13:25;;;;;;;;;;;;;;;28.51;37.22;99546.63;1731626;81;20234;-60
2022/06/25 09:15:52;;;;;;;;;;;;;;;28.38;37.24;99554.55;1729015;81;20556;-60
2022/06/25 09:18:19;;;;;;;;;;;;;;;28.21;36.78;99544.06;1762399;79;21577;-60
2022/06/25 09:20:58;;;;;;;;;;;;;;;28.06;36.88;99556.20;1762706;80;21783;-59
2022/06/25 09:23:26;;;;;;;;;;;;;;;28.10;37.29;99560.66;1730709;82;20158;-62
2022/06/25 09:26:10;;;;;;;;;;;;;;;28.22;37.45;99551.08;1722976;80;20252;-61
2022/06/25 09:28:39;;;;;;;;;;;;;;;28.34;36.94;99553.59;1722364;82;20161;-61
2022/06/25 09:31:05;;;;;;;;;;;;;;;28.44;37.13;99545.75;1793342;78;21065;-61
2022/06/25 09:33:33;;;;;;;;;;;;;;;28.52;36.71;99541.59;1798063;78;21559;-62
2022/06/25 09:35:59;;;;;;;;;;;;;;;28.37;36.29;99546.16;1789416;78;20189;-61
2022/06/25 09:38:26;;;;;;;;;;;;;;;28.37;36.85;99547.50;1763847;79;20203;-61
2022/06/25 09:41:00;;;;;;;;;;;;;;;28.48;37.10;99547.02;1762510;79;20109;-62
2022/06/25 09:43:37;;;;;;;;;;;;;;;28.66;37.03;99547.39;1762285;79;21060;-62
2022/06/25 09:46:06;;;;;;;;;;;;;;;28.72;37.02;99545.27;1745681;80;20159;-61
2022/06/25 09:48:35;;;;;;;;;;;;;;;28.70;36.77;99547.31;1723726;81;20172;-62
2022/06/25 09:51:23;;;;;;;;;;;;;;;28.78;37.08;99551.20;1763889;79;20094;-62
2022/06/25 09:53:52;;;;;;;;;;;;;;;28.93;36.67;99548.92;1763450;79;20196;-63
2022/06/25 09:56:21;;;;;;;;;;;;;;;28.74;35.79;99541.88;1762447;79;21442;-62
2022/06/25 09:58:49;;;;;;;;;;;;;;;28.63;36.48;99550.47;1764919;79;20553;-63
2022/06/25 10:01:17;;;;;;;;;;;;;;;28.59;36.07;99546.49;1756197;80;20165;-62
2022/06/25 10:03:45;;;;;;;;;;;;;;;28.33;36.07;99539.83;1720512;81;20380;-63
2022/06/25 10:06:16;;;;;;;;;;;;;;;28.25;35.86;99539.95;1724797;81;20165;-62
2022/06/25 10:08:51;;;;;;;;;;;;;;;28.18;35.89;99540.41;1753484;80;22255;-62
2022/06/25 10:11:26;;;;;;;;;;;;;;;28.25;35.27;99554.72;1765181;79;20787;-62
2022/06/25 10:13:53;;;;;;;;;;;;;;;28.05;35.74;99549.66;1754309;80;20417;-61
2022/06/25 10:16:26;;;;;;;;;;;;;;;28.20;35.62;99547.74;1756810;80;20152;-61
2022/06/25 10:18:54;;;;;;;;;;;;;;;28.21;36.26;99542.72;1763462;79;20554;-61
2022/06/25 10:21:22;;;;;;;;;;;;;;;28.41;36.26;99548.79;1749105;80;21827;-62
2022/06/25 10:23:55;;;;;;;;;;;;;;;28.45;35.89;99535.31;1723903;81;20162;-62
2022/06/25 10:26:22;;;;;;;;;;;;;;;28.37;35.85;99534.07;1721707;81;20203;-62
2022/06/25 10:28:49;;;;;;;;;;;;;;;28.39;35.32;99536.06;1728774;82;20178;-62
2022/06/25 10:31:17;;;;;;;;;;;;;;;28.23;35.17;99542.02;1754173;80;20173;-62
2022/06/25 10:34:02;;;;;;;;;;;;;;;28.16;35.31;99534.40;1731339;82;21403;-62
2022/06/25 10:36:46;;;;;;;;;;;;;;;28.28;35.64;99534.20;1701919;82;20216;-62
2022/06/25 10:39:29;;;;;;;;;;;;;;;28.42;35.10;99539.70;1721700;81;20111;-61
2022/06/25 10:45:07;;;;;;;;;;;;;;;28.23;35.65;99536.66;1761495;80;20106;-62
2022/06/25 10:47:41;;;;;;;;;;;;;;;28.34;35.42;99540.17;1767803;79;21055;-63
2022/06/25 10:50:26;;;;;;;;;;;;;;;28.39;35.59;99541.43;1762091;79;20675;-62
2022/06/25 10:53:08;;;;;;;;;;;;;;;28.51;35.68;99535.39;1771983;79;20117;-62
2022/06/25 10:55:39;;;;;;;;;;;;;;;28.60;35.24;99540.11;1774149;79;20116;-62
2022/06/25 10:58:13;;;;;;;;;;;;;;;28.47;35.11;99542.67;1773811;79;20557;-62
2022/06/25 11:00:58;;;;;;;;;;;;;;;28.44;35.17;99539.04;1771742;79;21061;-63
2022/06/25 11:03:31;;;;;;;;;;;;;;;28.47;34.46;99542.67;1771806;79;20076;-62
2022/06/25 11:06:18;;;;;;;;;;;;;;;28.29;34.64;99545.28;1786708;78;20174;-62
2022/06/25 11:08:46;;;;;;;;;;;;;;;28.17;34.65;99526.66;1785779;78;20117;-62
2022/06/25 11:11:15;;;;;;;;;;;;;;;28.24;34.94;99534.80;1753908;80;20191;-62
2022/06/25 11:13:42;;;;;;;;;;;;;;;28.28;34.73;99538.22;1748971;80;21009;-62
2022/06/25 11:16:14;;;;;;;;;;;;;;;28.40;35.20;99540.40;1762257;80;20184;-63
2022/06/25 11:18:49;;;;;;;;;;;;;;;28.56;34.93;99541.52;1748210;80;20178;-62
2022/06/25 11:21:35;;;;;;;;;;;;;;;28.48;34.92;99536.27;1723352;82;20240;-63
2022/06/25 11:24:08;;;;;;;;;;;;;;;28.62;35.23;99543.94;1731568;82;20211;-63
2022/06/25 11:29:22;;;;;;;;;;;;;;;28.50;33.95;99534.23;1776290;79;20188;-63
2022/06/25 11:31:50;;;;;;;;;;;;;;;28.43;33.89;99544.06;1776815;79;20568;-63
2022/06/25 11:34:22;;;;;;;;;;;;;;;28.42;33.81;99541.05;1753642;80;20160;-62
2022/06/25 11:37:09;;;;;;;;;;;;;;;28.36;34.05;99543.98;1749728;80;20169;-62
2022/06/25 11:39:37;;;;;;;;;;;;;;;28.51;34.17;99545.28;1654739;84;21137;-61
2022/06/25 11:42:09;;;;;;;;;;;;;;;28.48;34.16;99547.84;1690131;83;20852;-63
2022/06/25 11:44:44;;;;;;;;;;;;;;;28.42;33.96;99543.24;1663754;84;20159;-61
2022/06/25 11:47:20;;;;;;;;;;;;;;;28.48;34.58;99541.64;1637242;86;20234;-62
2022/06/25 11:49:47;;;;;;;;;;;;;;;28.65;34.31;99537.69;1634665;86;20210;-61
2022/06/25 11:52:14;;;;;;;;;;;;;;;28.74;34.31;99541.88;1664242;84;21493;-62
2022/06/25 11:54:42;;;;;;;;;;;;;;;28.57;33.73;99541.84;1690201;83;20582;-62
2022/06/25 11:57:14;;;;;;;;;;;;;;;28.47;33.96;99539.98;1687271;83;20129;-62
2022/06/25 11:59:40;;;;;;;;;;;;;;;28.45;34.05;99546.06;1666595;84;20224;-63
2022/06/25 12:02:08;;;;;;;;;;;;;;;28.40;33.80;99545.77;1654541;85;20427;-62
2022/06/25 12:04:52;;;;;;;;;;;;;;;28.30;34.12;99542.91;1654734;85;21629;-61
2022/06/25 12:07:25;;;;;;;;;;;;;;;28.19;34.36;99538.04;1652718;85;20527;-62
2022/06/25 12:09:55;;;;;;;;;;;;;;;28.42;34.72;99549.95;1654422;85;20505;-62
2022/06/25 12:12:23;;;;;;;;;;;;;;;28.46;34.56;99545.05;1653158;85;20221;-62
2022/06/25 12:14:50;;;;;;;;;;;;;;;28.44;35.28;99540.38;1654570;85;20151;-62
2022/06/25 12:17:17;;;;;;;;;;;;;;;28.52;35.06;99551.81;1654798;85;21466;-62
2022/06/25 12:19:45;;;;;;;;;;;;;;;28.57;35.40;99545.88;1654621;85;20695;-61
2022/06/25 12:22:29;;;;;;;;;;;;;;;28.77;35.34;99549.55;1653875;85;20119;-61
2022/06/25 12:25:03;;;;;;;;;;;;;;;28.89;35.42;99549.02;1654205;85;20741;-60
2022/06/25 12:27:29;;;;;;;;;;;;;;;28.99;35.53;99546.83;1654725;85;20497;-61
2022/06/25 12:29:57;;;;;;;;;;;;;;;29.16;35.93;99544.17;1654779;85;21112;-62
2022/06/25 12:32:41;;;;;;;;;;;;;;;29.37;35.74;99549.97;1654379;85;20174;-62
2022/06/25 12:35:25;;;;;;;;;;;;;;;29.20;35.39;99549.45;1652797;85;20187;-62
2022/06/25 12:38:11;;;;;;;;;;;;;;;28.68;35.31;99542.66;1664011;83;20302;-63
2022/06/25 12:40:45;;;;;;;;;;;;;;;28.53;35.63;99536.53;1684986;83;20231;-61
2022/06/25 12:43:14;;;;;;;;;;;;;;;28.50;35.81;99539.60;1682591;83;20958;-62
2022/06/25 12:45:43;;;;;;;;;;;;;;;28.51;36.04;99543.94;1684267;83;20251;-62
2022/06/25 12:48:11;;;;;;;;;;;;;;;28.66;36.17;99542.02;1666776;84;21202;-61
2022/06/25 12:50:39;;;;;;;;;;;;;;;28.89;36.14;99541.78;1690381;83;21267;-61
2022/06/25 12:53:11;;;;;;;;;;;;;;;29.03;36.05;99546.77;1684483;83;20346;-61
2022/06/25 12:55:39;;;;;;;;;;;;;;;29.07;36.27;99538.61;1687162;83;21395;-61
2022/06/25 12:58:15;;;;;;;;;;;;;;;28.87;36.00;99529.56;1686709;83;20167;-62
2022/06/25 13:00:41;;;;;;;;;;;;;;;28.99;36.46;99538.77;1682337;83;20598;-62
2022/06/25 13:03:09;;;;;;;;;;;;;;;29.14;36.28;99536.81;1688366;83;20725;-62